sensor_id;sensor_type;location;lat;lon;timestamp;P1;durP1;ratioP1;P2;durP2;ratioP2
32523;SDS011;18965;52.242;20.886;2022-08-27T00:00:17;14.48;;;8.13;;
32523;SDS011;18965;52.242;20.886;2022-08-27T00:02:53;14.32;;;8.05;;
32523;SDS011;18965;52.242;20.886;2022-08-27T00:05:20;15.25;;;8.07;;
32523;SDS011;18965;52.242;20.886;2022-08-27T00:07:46;13.57;;;7.68;;
32523;SDS011;18965;52.242;20.886;2022-08-27T00:10:14;13.23;;;8.32;;
32523;SDS011;18965;52.242;20.886;2022-08-27T00:12:42;14.50;;;7.65;;
32523;SDS011;18965;52.242;20.886;2022-08-27T00:15:08;16.08;;;7.95;;
32523;SDS011;18965;52.242;20.886;2022-08-27T00:17:36;13.98;;;7.80;;
32523;SDS011;18965;52.242;20.886;2022-08-27T00:20:03;18.30;;;8.05;;
32523;SDS011;18965;52.242;20.886;2022-08-27T00:22:30;16.85;;;8.20;;
32523;SDS011;18965;52.242;20.886;2022-08-27T00:24:56;15.88;;;8.18;;
32523;SDS011;18965;52.242;20.886;2022-08-27T00:27:22;10.75;;;8.07;;
32523;SDS011;18965;52.242;20.886;2022-08-27T00:29:48;13.38;;;8.38;;
32523;SDS011;18965;52.242;20.886;2022-08-27T00:32:14;11.32;;;8.23;;
32523;SDS011;18965;52.242;20.886;2022-08-27T00:34:40;14.95;;;8.32;;
32523;SDS011;18965;52.242;20.886;2022-08-27T00:37:06;15.63;;;8.15;;
32523;SDS011;18965;52.242;20.886;2022-08-27T00:39:32;12.27;;;8.18;;
32523;SDS011;18965;52.242;20.886;2022-08-27T00:42:00;14.23;;;8.05;;
32523;SDS011;18965;52.242;20.886;2022-08-27T00:44:26;12.95;;;7.72;;
32523;SDS011;18965;52.242;20.886;2022-08-27T00:46:56;14.60;;;8.40;;
32523;SDS011;18965;52.242;20.886;2022-08-27T00:49:27;11.98;;;8.18;;
32523;SDS011;18965;52.242;20.886;2022-08-27T00:52:22;11.43;;;7.82;;
32523;SDS011;18965;52.242;20.886;2022-08-27T00:54:57;12.93;;;8.43;;
32523;SDS011;18965;52.242;20.886;2022-08-27T00:57:28;14.57;;;8.60;;
32523;SDS011;18965;52.242;20.886;2022-08-27T00:59:54;11.93;;;8.00;;
32523;SDS011;18965;52.242;20.886;2022-08-27T01:02:20;12.40;;;8.25;;
32523;SDS011;18965;52.242;20.886;2022-08-27T01:04:51;18.17;;;9.07;;
32523;SDS011;18965;52.242;20.886;2022-08-27T01:07:20;13.23;;;8.23;;
32523;SDS011;18965;52.242;20.886;2022-08-27T01:09:47;11.80;;;7.70;;
32523;SDS011;18965;52.242;20.886;2022-08-27T01:12:14;15.68;;;8.05;;
32523;SDS011;18965;52.242;20.886;2022-08-27T01:14:41;14.50;;;8.50;;
32523;SDS011;18965;52.242;20.886;2022-08-27T01:17:09;13.82;;;8.10;;
32523;SDS011;18965;52.242;20.886;2022-08-27T01:19:43;12.65;;;8.27;;
32523;SDS011;18965;52.242;20.886;2022-08-27T01:22:32;9.38;;;7.90;;
32523;SDS011;18965;52.242;20.886;2022-08-27T01:25:12;12.98;;;8.07;;
32523;SDS011;18965;52.242;20.886;2022-08-27T01:27:39;13.20;;;8.60;;
32523;SDS011;18965;52.242;20.886;2022-08-27T01:30:08;14.30;;;7.93;;
32523;SDS011;18965;52.242;20.886;2022-08-27T01:32:36;13.50;;;7.95;;
32523;SDS011;18965;52.242;20.886;2022-08-27T01:35:03;10.43;;;7.80;;
32523;SDS011;18965;52.242;20.886;2022-08-27T01:37:31;12.15;;;8.80;;
32523;SDS011;18965;52.242;20.886;2022-08-27T01:39:58;13.40;;;8.73;;
32523;SDS011;18965;52.242;20.886;2022-08-27T01:42:32;12.77;;;8.40;;
32523;SDS011;18965;52.242;20.886;2022-08-27T01:45:03;16.63;;;8.93;;
32523;SDS011;18965;52.242;20.886;2022-08-27T01:47:35;12.50;;;8.48;;
32523;SDS011;18965;52.242;20.886;2022-08-27T01:50:07;15.73;;;9.27;;
32523;SDS011;18965;52.242;20.886;2022-08-27T01:52:39;11.73;;;8.60;;
32523;SDS011;18965;52.242;20.886;2022-08-27T01:55:06;14.32;;;9.52;;
32523;SDS011;18965;52.242;20.886;2022-08-27T01:57:34;17.75;;;10.13;;
32523;SDS011;18965;52.242;20.886;2022-08-27T02:00:02;16.65;;;9.18;;
32523;SDS011;18965;52.242;20.886;2022-08-27T02:02:30;16.23;;;10.20;;
32523;SDS011;18965;52.242;20.886;2022-08-27T02:04:56;14.52;;;9.52;;
32523;SDS011;18965;52.242;20.886;2022-08-27T02:07:22;16.27;;;10.15;;
32523;SDS011;18965;52.242;20.886;2022-08-27T02:09:48;12.50;;;10.23;;
32523;SDS011;18965;52.242;20.886;2022-08-27T02:12:14;14.95;;;9.63;;
32523;SDS011;18965;52.242;20.886;2022-08-27T02:14:40;14.38;;;9.93;;
32523;SDS011;18965;52.242;20.886;2022-08-27T02:17:05;16.00;;;10.07;;
32523;SDS011;18965;52.242;20.886;2022-08-27T02:19:31;19.17;;;10.45;;
32523;SDS011;18965;52.242;20.886;2022-08-27T02:21:57;14.07;;;10.10;;
32523;SDS011;18965;52.242;20.886;2022-08-27T02:24:24;17.40;;;10.15;;
32523;SDS011;18965;52.242;20.886;2022-08-27T02:26:52;15.13;;;10.75;;
32523;SDS011;18965;52.242;20.886;2022-08-27T02:29:19;16.05;;;9.60;;
32523;SDS011;18965;52.242;20.886;2022-08-27T02:31:46;17.02;;;11.40;;
32523;SDS011;18965;52.242;20.886;2022-08-27T02:34:12;15.95;;;11.13;;
32523;SDS011;18965;52.242;20.886;2022-08-27T02:36:37;15.70;;;10.40;;
32523;SDS011;18965;52.242;20.886;2022-08-27T02:39:04;16.88;;;11.40;;
32523;SDS011;18965;52.242;20.886;2022-08-27T02:41:30;16.80;;;11.07;;
32523;SDS011;18965;52.242;20.886;2022-08-27T02:43:56;20.83;;;13.13;;
32523;SDS011;18965;52.242;20.886;2022-08-27T02:46:21;20.67;;;14.00;;
32523;SDS011;18965;52.242;20.886;2022-08-27T02:48:48;25.23;;;16.27;;
32523;SDS011;18965;52.242;20.886;2022-08-27T02:51:13;26.95;;;16.27;;
32523;SDS011;18965;52.242;20.886;2022-08-27T02:53:39;29.73;;;19.42;;
32523;SDS011;18965;52.242;20.886;2022-08-27T02:56:08;27.60;;;17.80;;
32523;SDS011;18965;52.242;20.886;2022-08-27T02:58:34;28.15;;;18.10;;
32523;SDS011;18965;52.242;20.886;2022-08-27T03:01:00;25.13;;;15.23;;
32523;SDS011;18965;52.242;20.886;2022-08-27T03:03:27;21.38;;;14.07;;
32523;SDS011;18965;52.242;20.886;2022-08-27T03:05:54;26.75;;;16.02;;
32523;SDS011;18965;52.242;20.886;2022-08-27T03:08:20;21.92;;;13.38;;
32523;SDS011;18965;52.242;20.886;2022-08-27T03:10:47;22.83;;;12.77;;
32523;SDS011;18965;52.242;20.886;2022-08-27T03:13:13;19.63;;;10.88;;
32523;SDS011;18965;52.242;20.886;2022-08-27T03:15:39;22.52;;;11.48;;
32523;SDS011;18965;52.242;20.886;2022-08-27T03:18:04;18.33;;;11.13;;
32523;SDS011;18965;52.242;20.886;2022-08-27T03:20:43;15.95;;;10.18;;
32523;SDS011;18965;52.242;20.886;2022-08-27T03:23:21;17.38;;;11.77;;
32523;SDS011;18965;52.242;20.886;2022-08-27T03:25:57;16.92;;;11.13;;
32523;SDS011;18965;52.242;20.886;2022-08-27T03:28:29;19.63;;;12.30;;
32523;SDS011;18965;52.242;20.886;2022-08-27T03:30:58;22.23;;;11.98;;
32523;SDS011;18965;52.242;20.886;2022-08-27T03:33:27;19.25;;;13.30;;
32523;SDS011;18965;52.242;20.886;2022-08-27T03:35:54;23.38;;;13.18;;
32523;SDS011;18965;52.242;20.886;2022-08-27T03:38:20;19.92;;;13.68;;
32523;SDS011;18965;52.242;20.886;2022-08-27T03:40:47;26.08;;;15.55;;
32523;SDS011;18965;52.242;20.886;2022-08-27T03:43:14;24.98;;;14.20;;
32523;SDS011;18965;52.242;20.886;2022-08-27T03:45:42;18.38;;;12.32;;
32523;SDS011;18965;52.242;20.886;2022-08-27T03:48:09;25.17;;;14.23;;
32523;SDS011;18965;52.242;20.886;2022-08-27T03:50:39;24.67;;;15.45;;
32523;SDS011;18965;52.242;20.886;2022-08-27T03:53:07;28.15;;;14.95;;
32523;SDS011;18965;52.242;20.886;2022-08-27T03:55:33;22.90;;;14.38;;
32523;SDS011;18965;52.242;20.886;2022-08-27T03:57:59;18.48;;;11.98;;
32523;SDS011;18965;52.242;20.886;2022-08-27T04:00:25;17.02;;;11.20;;
32523;SDS011;18965;52.242;20.886;2022-08-27T04:02:51;22.67;;;13.23;;
32523;SDS011;18965;52.242;20.886;2022-08-27T04:05:19;15.93;;;11.73;;
32523;SDS011;18965;52.242;20.886;2022-08-27T04:07:45;19.60;;;13.18;;
32523;SDS011;18965;52.242;20.886;2022-08-27T04:10:12;13.68;;;10.50;;
32523;SDS011;18965;52.242;20.886;2022-08-27T04:12:39;19.05;;;11.73;;
32523;SDS011;18965;52.242;20.886;2022-08-27T04:15:06;15.57;;;10.32;;
32523;SDS011;18965;52.242;20.886;2022-08-27T04:17:33;20.40;;;9.85;;
32523;SDS011;18965;52.242;20.886;2022-08-27T04:19:59;16.45;;;10.30;;
32523;SDS011;18965;52.242;20.886;2022-08-27T04:22:25;15.18;;;10.35;;
32523;SDS011;18965;52.242;20.886;2022-08-27T04:24:51;16.02;;;10.70;;
32523;SDS011;18965;52.242;20.886;2022-08-27T04:27:17;17.13;;;11.05;;
32523;SDS011;18965;52.242;20.886;2022-08-27T04:29:44;17.30;;;10.10;;
32523;SDS011;18965;52.242;20.886;2022-08-27T04:32:10;21.45;;;12.02;;
32523;SDS011;18965;52.242;20.886;2022-08-27T04:34:36;26.80;;;11.50;;
32523;SDS011;18965;52.242;20.886;2022-08-27T04:37:02;17.45;;;10.02;;
32523;SDS011;18965;52.242;20.886;2022-08-27T04:39:28;20.42;;;11.60;;
32523;SDS011;18965;52.242;20.886;2022-08-27T04:41:55;18.50;;;10.27;;
32523;SDS011;18965;52.242;20.886;2022-08-27T04:44:23;17.35;;;10.68;;
32523;SDS011;18965;52.242;20.886;2022-08-27T04:46:52;15.35;;;10.80;;
32523;SDS011;18965;52.242;20.886;2022-08-27T04:49:20;18.10;;;10.43;;
32523;SDS011;18965;52.242;20.886;2022-08-27T04:51:46;15.20;;;11.48;;
32523;SDS011;18965;52.242;20.886;2022-08-27T04:54:12;15.57;;;10.93;;
32523;SDS011;18965;52.242;20.886;2022-08-27T04:56:38;22.38;;;11.25;;
32523;SDS011;18965;52.242;20.886;2022-08-27T04:59:04;16.48;;;10.50;;
32523;SDS011;18965;52.242;20.886;2022-08-27T05:01:33;19.15;;;10.70;;
32523;SDS011;18965;52.242;20.886;2022-08-27T05:03:58;18.42;;;10.35;;
32523;SDS011;18965;52.242;20.886;2022-08-27T05:06:24;13.95;;;10.20;;
32523;SDS011;18965;52.242;20.886;2022-08-27T05:08:51;17.23;;;10.23;;
32523;SDS011;18965;52.242;20.886;2022-08-27T05:11:18;18.45;;;10.65;;
32523;SDS011;18965;52.242;20.886;2022-08-27T05:13:45;19.98;;;10.38;;
32523;SDS011;18965;52.242;20.886;2022-08-27T05:16:13;18.65;;;10.68;;
32523;SDS011;18965;52.242;20.886;2022-08-27T05:18:43;12.85;;;9.88;;
32523;SDS011;18965;52.242;20.886;2022-08-27T05:21:14;18.42;;;10.60;;
32523;SDS011;18965;52.242;20.886;2022-08-27T05:23:42;16.65;;;11.90;;
32523;SDS011;18965;52.242;20.886;2022-08-27T05:26:08;20.25;;;11.00;;
32523;SDS011;18965;52.242;20.886;2022-08-27T05:28:34;17.58;;;11.07;;
32523;SDS011;18965;52.242;20.886;2022-08-27T05:31:07;19.90;;;11.98;;
32523;SDS011;18965;52.242;20.886;2022-08-27T05:33:34;16.23;;;11.00;;
32523;SDS011;18965;52.242;20.886;2022-08-27T05:36:02;14.18;;;10.38;;
32523;SDS011;18965;52.242;20.886;2022-08-27T05:38:30;18.02;;;10.68;;
32523;SDS011;18965;52.242;20.886;2022-08-27T05:41:04;15.15;;;10.88;;
32523;SDS011;18965;52.242;20.886;2022-08-27T05:43:35;16.25;;;10.65;;
32523;SDS011;18965;52.242;20.886;2022-08-27T05:46:03;19.23;;;11.05;;
32523;SDS011;18965;52.242;20.886;2022-08-27T05:48:31;19.33;;;11.77;;
32523;SDS011;18965;52.242;20.886;2022-08-27T05:51:06;17.10;;;11.35;;
32523;SDS011;18965;52.242;20.886;2022-08-27T05:53:37;14.13;;;10.52;;
32523;SDS011;18965;52.242;20.886;2022-08-27T05:56:03;22.40;;;11.48;;
32523;SDS011;18965;52.242;20.886;2022-08-27T05:58:29;18.25;;;12.30;;
32523;SDS011;18965;52.242;20.886;2022-08-27T06:01:15;24.35;;;10.88;;
32523;SDS011;18965;52.242;20.886;2022-08-27T06:03:45;15.20;;;10.95;;
32523;SDS011;18965;52.242;20.886;2022-08-27T06:06:11;16.50;;;10.90;;
32523;SDS011;18965;52.242;20.886;2022-08-27T06:08:38;18.15;;;10.82;;
32523;SDS011;18965;52.242;20.886;2022-08-27T06:11:04;16.83;;;11.10;;
32523;SDS011;18965;52.242;20.886;2022-08-27T06:13:31;20.50;;;11.43;;
32523;SDS011;18965;52.242;20.886;2022-08-27T06:18:31;18.60;;;11.30;;
32523;SDS011;18965;52.242;20.886;2022-08-27T06:20:58;17.25;;;11.23;;
32523;SDS011;18965;52.242;20.886;2022-08-27T06:23:25;18.08;;;9.85;;
32523;SDS011;18965;52.242;20.886;2022-08-27T06:25:51;21.33;;;11.98;;
32523;SDS011;18965;52.242;20.886;2022-08-27T06:28:20;17.92;;;10.75;;
32523;SDS011;18965;52.242;20.886;2022-08-27T06:30:47;17.90;;;9.40;;
32523;SDS011;18965;52.242;20.886;2022-08-27T06:33:13;15.35;;;10.05;;
32523;SDS011;18965;52.242;20.886;2022-08-27T06:35:40;17.25;;;10.50;;
32523;SDS011;18965;52.242;20.886;2022-08-27T06:38:06;16.95;;;10.85;;
32523;SDS011;18965;52.242;20.886;2022-08-27T06:40:33;15.68;;;10.50;;
32523;SDS011;18965;52.242;20.886;2022-08-27T06:42:59;16.55;;;9.93;;
32523;SDS011;18965;52.242;20.886;2022-08-27T06:45:25;20.02;;;10.65;;
32523;SDS011;18965;52.242;20.886;2022-08-27T06:47:51;18.65;;;10.38;;
32523;SDS011;18965;52.242;20.886;2022-08-27T06:50:17;17.92;;;9.93;;
32523;SDS011;18965;52.242;20.886;2022-08-27T06:52:44;14.73;;;10.60;;
32523;SDS011;18965;52.242;20.886;2022-08-27T06:55:11;17.10;;;10.13;;
32523;SDS011;18965;52.242;20.886;2022-08-27T06:57:37;17.20;;;9.95;;
32523;SDS011;18965;52.242;20.886;2022-08-27T07:00:04;14.63;;;10.68;;
32523;SDS011;18965;52.242;20.886;2022-08-27T07:03:02;21.70;;;10.50;;
32523;SDS011;18965;52.242;20.886;2022-08-27T07:06:32;19.80;;;10.25;;
32523;SDS011;18965;52.242;20.886;2022-08-27T07:10:12;18.33;;;10.57;;
32523;SDS011;18965;52.242;20.886;2022-08-27T07:13:21;15.40;;;10.20;;
32523;SDS011;18965;52.242;20.886;2022-08-27T07:15:46;14.63;;;10.38;;
32523;SDS011;18965;52.242;20.886;2022-08-27T07:18:12;16.42;;;10.38;;
32523;SDS011;18965;52.242;20.886;2022-08-27T07:20:39;15.02;;;10.52;;
32523;SDS011;18965;52.242;20.886;2022-08-27T07:23:05;17.48;;;10.60;;
32523;SDS011;18965;52.242;20.886;2022-08-27T07:25:31;18.17;;;10.10;;
32523;SDS011;18965;52.242;20.886;2022-08-27T07:27:57;16.92;;;11.27;;
32523;SDS011;18965;52.242;20.886;2022-08-27T07:30:24;17.98;;;10.45;;
32523;SDS011;18965;52.242;20.886;2022-08-27T07:32:52;19.15;;;10.50;;
32523;SDS011;18965;52.242;20.886;2022-08-27T07:35:18;21.17;;;10.70;;
32523;SDS011;18965;52.242;20.886;2022-08-27T07:37:44;19.95;;;10.65;;
32523;SDS011;18965;52.242;20.886;2022-08-27T07:40:11;15.15;;;10.18;;
32523;SDS011;18965;52.242;20.886;2022-08-27T07:42:39;20.50;;;10.50;;
32523;SDS011;18965;52.242;20.886;2022-08-27T07:45:24;12.13;;;8.93;;
32523;SDS011;18965;52.242;20.886;2022-08-27T07:47:51;16.42;;;9.77;;
32523;SDS011;18965;52.242;20.886;2022-08-27T07:50:17;16.23;;;10.18;;
32523;SDS011;18965;52.242;20.886;2022-08-27T07:52:43;15.43;;;10.05;;
32523;SDS011;18965;52.242;20.886;2022-08-27T07:55:10;19.00;;;9.98;;
32523;SDS011;18965;52.242;20.886;2022-08-27T07:57:37;14.73;;;9.95;;
32523;SDS011;18965;52.242;20.886;2022-08-27T08:00:04;17.30;;;9.45;;
32523;SDS011;18965;52.242;20.886;2022-08-27T08:02:33;18.42;;;10.10;;
32523;SDS011;18965;52.242;20.886;2022-08-27T08:04:59;18.63;;;10.20;;
32523;SDS011;18965;52.242;20.886;2022-08-27T08:07:25;14.02;;;9.65;;
32523;SDS011;18965;52.242;20.886;2022-08-27T08:09:50;21.63;;;9.85;;
32523;SDS011;18965;52.242;20.886;2022-08-27T08:12:16;15.88;;;10.30;;
32523;SDS011;18965;52.242;20.886;2022-08-27T08:14:42;13.20;;;9.55;;
32523;SDS011;18965;52.242;20.886;2022-08-27T08:17:07;15.02;;;9.80;;
32523;SDS011;18965;52.242;20.886;2022-08-27T08:19:33;16.00;;;9.15;;
32523;SDS011;18965;52.242;20.886;2022-08-27T08:21:59;14.15;;;9.23;;
32523;SDS011;18965;52.242;20.886;2022-08-27T08:24:25;20.77;;;9.90;;
32523;SDS011;18965;52.242;20.886;2022-08-27T08:26:51;16.55;;;9.63;;
32523;SDS011;18965;52.242;20.886;2022-08-27T08:29:16;17.33;;;10.20;;
32523;SDS011;18965;52.242;20.886;2022-08-27T08:31:42;16.52;;;8.75;;
32523;SDS011;18965;52.242;20.886;2022-08-27T08:34:08;16.70;;;9.27;;
32523;SDS011;18965;52.242;20.886;2022-08-27T08:36:34;14.68;;;8.90;;
32523;SDS011;18965;52.242;20.886;2022-08-27T08:39:00;14.23;;;8.70;;
32523;SDS011;18965;52.242;20.886;2022-08-27T08:43:53;16.63;;;9.23;;
32523;SDS011;18965;52.242;20.886;2022-08-27T08:46:24;19.33;;;8.77;;
32523;SDS011;18965;52.242;20.886;2022-08-27T08:48:56;17.42;;;8.57;;
32523;SDS011;18965;52.242;20.886;2022-08-27T08:51:37;14.77;;;8.45;;
32523;SDS011;18965;52.242;20.886;2022-08-27T08:54:06;16.70;;;8.73;;
32523;SDS011;18965;52.242;20.886;2022-08-27T08:56:38;10.85;;;8.30;;
32523;SDS011;18965;52.242;20.886;2022-08-27T08:59:16;12.48;;;8.82;;
32523;SDS011;18965;52.242;20.886;2022-08-27T09:01:47;14.63;;;8.10;;
32523;SDS011;18965;52.242;20.886;2022-08-27T09:04:14;12.68;;;8.25;;
32523;SDS011;18965;52.242;20.886;2022-08-27T09:06:42;16.10;;;8.05;;
32523;SDS011;18965;52.242;20.886;2022-08-27T09:12:10;12.68;;;8.07;;
32523;SDS011;18965;52.242;20.886;2022-08-27T09:14:57;12.73;;;8.13;;
32523;SDS011;18965;52.242;20.886;2022-08-27T09:17:27;15.63;;;8.25;;
32523;SDS011;18965;52.242;20.886;2022-08-27T09:19:53;17.70;;;9.02;;
32523;SDS011;18965;52.242;20.886;2022-08-27T09:27:39;13.90;;;7.90;;
32523;SDS011;18965;52.242;20.886;2022-08-27T09:30:11;16.67;;;8.82;;
32523;SDS011;18965;52.242;20.886;2022-08-27T09:32:53;15.05;;;8.23;;
32523;SDS011;18965;52.242;20.886;2022-08-27T09:35:22;11.30;;;8.25;;
32523;SDS011;18965;52.242;20.886;2022-08-27T09:37:51;16.38;;;8.50;;
32523;SDS011;18965;52.242;20.886;2022-08-27T09:40:29;14.30;;;8.50;;
32523;SDS011;18965;52.242;20.886;2022-08-27T09:43:04;12.20;;;8.20;;
32523;SDS011;18965;52.242;20.886;2022-08-27T09:45:32;17.77;;;8.48;;
32523;SDS011;18965;52.242;20.886;2022-08-27T09:48:06;16.38;;;9.25;;
32523;SDS011;18965;52.242;20.886;2022-08-27T09:50:47;19.25;;;10.77;;
32523;SDS011;18965;52.242;20.886;2022-08-27T09:53:22;13.13;;;9.90;;
32523;SDS011;18965;52.242;20.886;2022-08-27T09:55:59;16.58;;;9.55;;
32523;SDS011;18965;52.242;20.886;2022-08-27T09:58:32;15.43;;;9.68;;
32523;SDS011;18965;52.242;20.886;2022-08-27T10:01:19;17.52;;;9.73;;
32523;SDS011;18965;52.242;20.886;2022-08-27T10:03:47;12.43;;;8.77;;
32523;SDS011;18965;52.242;20.886;2022-08-27T10:06:13;15.55;;;9.45;;
32523;SDS011;18965;52.242;20.886;2022-08-27T10:08:52;17.42;;;10.70;;
32523;SDS011;18965;52.242;20.886;2022-08-27T10:11:24;14.25;;;9.65;;
32523;SDS011;18965;52.242;20.886;2022-08-27T10:14:01;15.45;;;10.00;;
32523;SDS011;18965;52.242;20.886;2022-08-27T10:17:36;14.32;;;9.98;;
32523;SDS011;18965;52.242;20.886;2022-08-27T10:24:39;14.13;;;10.00;;
32523;SDS011;18965;52.242;20.886;2022-08-27T10:35:20;17.02;;;10.75;;
32523;SDS011;18965;52.242;20.886;2022-08-27T10:38:23;17.38;;;10.38;;
32523;SDS011;18965;52.242;20.886;2022-08-27T10:41:01;19.92;;;10.73;;
32523;SDS011;18965;52.242;20.886;2022-08-27T11:03:32;15.70;;;11.13;;
32523;SDS011;18965;52.242;20.886;2022-08-27T11:11:47;14.93;;;10.82;;
32523;SDS011;18965;52.242;20.886;2022-08-27T11:14:28;17.23;;;10.93;;
32523;SDS011;18965;52.242;20.886;2022-08-27T11:17:03;13.20;;;9.73;;
32523;SDS011;18965;52.242;20.886;2022-08-27T11:23:15;11.25;;;8.85;;
32523;SDS011;18965;52.242;20.886;2022-08-27T11:25:55;11.30;;;9.63;;
32523;SDS011;18965;52.242;20.886;2022-08-27T11:31:24;12.27;;;9.27;;
32523;SDS011;18965;52.242;20.886;2022-08-27T11:34:02;12.65;;;9.35;;
32523;SDS011;18965;52.242;20.886;2022-08-27T11:44:38;15.10;;;9.75;;
32523;SDS011;18965;52.242;20.886;2022-08-27T11:47:12;13.75;;;10.20;;
32523;SDS011;18965;52.242;20.886;2022-08-27T11:52:25;17.98;;;9.45;;
32523;SDS011;18965;52.242;20.886;2022-08-27T11:57:46;12.57;;;9.20;;
32523;SDS011;18965;52.242;20.886;2022-08-27T12:03:01;14.43;;;9.27;;
32523;SDS011;18965;52.242;20.886;2022-08-27T12:05:37;15.25;;;9.70;;
32523;SDS011;18965;52.242;20.886;2022-08-27T12:16:34;13.23;;;9.40;;
32523;SDS011;18965;52.242;20.886;2022-08-27T12:33:26;13.85;;;9.15;;
32523;SDS011;18965;52.242;20.886;2022-08-27T12:37:02;12.20;;;9.10;;
32523;SDS011;18965;52.242;20.886;2022-08-27T12:40:36;17.60;;;11.20;;
32523;SDS011;18965;52.242;20.886;2022-08-27T12:48:08;18.02;;;11.13;;
32523;SDS011;18965;52.242;20.886;2022-08-27T12:51:18;12.77;;;9.65;;
32523;SDS011;18965;52.242;20.886;2022-08-27T12:54:52;18.30;;;11.05;;
32523;SDS011;18965;52.242;20.886;2022-08-27T13:02:08;16.38;;;11.02;;
32523;SDS011;18965;52.242;20.886;2022-08-27T13:05:10;18.73;;;11.82;;
32523;SDS011;18965;52.242;20.886;2022-08-27T13:07:41;18.67;;;11.18;;
32523;SDS011;18965;52.242;20.886;2022-08-27T13:10:20;20.70;;;11.25;;
32523;SDS011;18965;52.242;20.886;2022-08-27T13:13:07;16.08;;;11.35;;
32523;SDS011;18965;52.242;20.886;2022-08-27T13:15:35;16.15;;;11.20;;
32523;SDS011;18965;52.242;20.886;2022-08-27T13:18:06;15.90;;;11.57;;
32523;SDS011;18965;52.242;20.886;2022-08-27T13:20:35;17.25;;;12.65;;
32523;SDS011;18965;52.242;20.886;2022-08-27T13:23:02;17.75;;;11.90;;
32523;SDS011;18965;52.242;20.886;2022-08-27T13:25:29;21.08;;;13.20;;
32523;SDS011;18965;52.242;20.886;2022-08-27T13:30:31;20.17;;;13.05;;
32523;SDS011;18965;52.242;20.886;2022-08-27T13:33:00;14.75;;;11.95;;
32523;SDS011;18965;52.242;20.886;2022-08-27T13:35:27;15.95;;;11.40;;
32523;SDS011;18965;52.242;20.886;2022-08-27T13:37:56;22.17;;;12.90;;
32523;SDS011;18965;52.242;20.886;2022-08-27T13:40:29;14.75;;;11.55;;
32523;SDS011;18965;52.242;20.886;2022-08-27T13:43:11;15.20;;;12.35;;
32523;SDS011;18965;52.242;20.886;2022-08-27T13:45:38;16.23;;;12.73;;
32523;SDS011;18965;52.242;20.886;2022-08-27T13:48:06;16.13;;;11.45;;
32523;SDS011;18965;52.242;20.886;2022-08-27T13:50:34;16.77;;;11.63;;
32523;SDS011;18965;52.242;20.886;2022-08-27T13:53:05;18.58;;;11.95;;
32523;SDS011;18965;52.242;20.886;2022-08-27T13:55:53;18.55;;;11.65;;
32523;SDS011;18965;52.242;20.886;2022-08-27T14:00:54;14.88;;;11.63;;
32523;SDS011;18965;52.242;20.886;2022-08-27T14:03:34;16.23;;;11.38;;
32523;SDS011;18965;52.242;20.886;2022-08-27T14:06:09;17.45;;;11.48;;
32523;SDS011;18965;52.242;20.886;2022-08-27T14:08:45;14.63;;;11.13;;
32523;SDS011;18965;52.242;20.886;2022-08-27T14:11:11;16.98;;;11.48;;
32523;SDS011;18965;52.242;20.886;2022-08-27T14:13:40;16.25;;;11.32;;
32523;SDS011;18965;52.242;20.886;2022-08-27T14:16:15;15.90;;;11.38;;
32523;SDS011;18965;52.242;20.886;2022-08-27T14:18:53;14.13;;;10.82;;
32523;SDS011;18965;52.242;20.886;2022-08-27T14:21:31;13.25;;;10.70;;
32523;SDS011;18965;52.242;20.886;2022-08-27T14:23:58;15.25;;;11.20;;
32523;SDS011;18965;52.242;20.886;2022-08-27T14:26:23;18.10;;;11.48;;
32523;SDS011;18965;52.242;20.886;2022-08-27T14:28:50;13.30;;;10.60;;
32523;SDS011;18965;52.242;20.886;2022-08-27T14:31:17;16.00;;;10.75;;
32523;SDS011;18965;52.242;20.886;2022-08-27T14:33:43;15.25;;;11.10;;
32523;SDS011;18965;52.242;20.886;2022-08-27T14:36:10;14.05;;;11.05;;
32523;SDS011;18965;52.242;20.886;2022-08-27T14:38:37;19.50;;;11.50;;
32523;SDS011;18965;52.242;20.886;2022-08-27T14:41:07;15.20;;;11.52;;
32523;SDS011;18965;52.242;20.886;2022-08-27T14:43:33;15.15;;;10.90;;
32523;SDS011;18965;52.242;20.886;2022-08-27T14:45:59;15.85;;;11.15;;
32523;SDS011;18965;52.242;20.886;2022-08-27T14:48:27;14.93;;;11.52;;
32523;SDS011;18965;52.242;20.886;2022-08-27T14:50:56;18.67;;;10.95;;
32523;SDS011;18965;52.242;20.886;2022-08-27T14:53:25;15.57;;;11.07;;
32523;SDS011;18965;52.242;20.886;2022-08-27T14:55:51;15.82;;;11.23;;
32523;SDS011;18965;52.242;20.886;2022-08-27T14:58:18;16.17;;;10.70;;
32523;SDS011;18965;52.242;20.886;2022-08-27T15:00:44;14.38;;;11.38;;
32523;SDS011;18965;52.242;20.886;2022-08-27T15:03:10;11.70;;;9.68;;
32523;SDS011;18965;52.242;20.886;2022-08-27T15:05:37;14.20;;;9.48;;
32523;SDS011;18965;52.242;20.886;2022-08-27T15:08:03;12.32;;;9.88;;
32523;SDS011;18965;52.242;20.886;2022-08-27T15:10:29;16.38;;;9.43;;
32523;SDS011;18965;52.242;20.886;2022-08-27T15:12:56;14.98;;;9.82;;
32523;SDS011;18965;52.242;20.886;2022-08-27T15:15:23;16.13;;;8.73;;
32523;SDS011;18965;52.242;20.886;2022-08-27T15:17:49;15.73;;;8.13;;
32523;SDS011;18965;52.242;20.886;2022-08-27T15:20:15;13.05;;;7.40;;
32523;SDS011;18965;52.242;20.886;2022-08-27T15:22:42;9.32;;;7.22;;
32523;SDS011;18965;52.242;20.886;2022-08-27T15:25:11;12.83;;;7.53;;
32523;SDS011;18965;52.242;20.886;2022-08-27T15:27:38;13.63;;;7.72;;
32523;SDS011;18965;52.242;20.886;2022-08-27T15:30:08;10.65;;;7.82;;
32523;SDS011;18965;52.242;20.886;2022-08-27T15:32:36;11.55;;;7.93;;
32523;SDS011;18965;52.242;20.886;2022-08-27T15:35:06;14.95;;;7.50;;
32523;SDS011;18965;52.242;20.886;2022-08-27T15:37:36;16.90;;;7.78;;
32523;SDS011;18965;52.242;20.886;2022-08-27T15:40:02;11.88;;;6.93;;
32523;SDS011;18965;52.242;20.886;2022-08-27T15:42:29;11.85;;;7.18;;
32523;SDS011;18965;52.242;20.886;2022-08-27T15:44:55;17.05;;;7.60;;
32523;SDS011;18965;52.242;20.886;2022-08-27T15:47:22;11.20;;;7.32;;
32523;SDS011;18965;52.242;20.886;2022-08-27T15:49:48;11.82;;;7.50;;
32523;SDS011;18965;52.242;20.886;2022-08-27T15:52:15;12.02;;;7.55;;
32523;SDS011;18965;52.242;20.886;2022-08-27T15:54:44;15.27;;;8.05;;
32523;SDS011;18965;52.242;20.886;2022-08-27T15:57:13;10.95;;;7.03;;
32523;SDS011;18965;52.242;20.886;2022-08-27T15:59:39;11.95;;;6.88;;
32523;SDS011;18965;52.242;20.886;2022-08-27T16:02:05;13.57;;;6.97;;
32523;SDS011;18965;52.242;20.886;2022-08-27T16:04:38;13.48;;;7.10;;
32523;SDS011;18965;52.242;20.886;2022-08-27T16:07:03;15.02;;;7.07;;
32523;SDS011;18965;52.242;20.886;2022-08-27T16:09:29;13.25;;;7.13;;
32523;SDS011;18965;52.242;20.886;2022-08-27T16:11:55;15.57;;;7.40;;
32523;SDS011;18965;52.242;20.886;2022-08-27T16:14:21;14.80;;;6.95;;
32523;SDS011;18965;52.242;20.886;2022-08-27T16:16:47;15.95;;;7.00;;
32523;SDS011;18965;52.242;20.886;2022-08-27T16:19:14;12.57;;;6.82;;
32523;SDS011;18965;52.242;20.886;2022-08-27T16:21:43;12.18;;;7.20;;
32523;SDS011;18965;52.242;20.886;2022-08-27T16:24:10;10.55;;;6.63;;